createdAt,value
2023-02-19T00:02:59.121Z,12.39
2023-02-19T00:08:00.984Z,12.45
2023-02-19T00:13:04.002Z,12.69
2023-02-19T00:18:05.401Z,12.87
2023-02-19T00:23:07.946Z,12.96
2023-02-19T00:28:06.182Z,12.97
2023-02-19T00:33:04.515Z,13.03
2023-02-19T00:38:05.909Z,13.02
2023-02-19T00:43:07.010Z,13.03
2023-02-19T00:48:05.269Z,12.99
2023-02-19T00:53:04.594Z,13.05
2023-02-19T00:58:04.613Z,12.96
2023-02-19T01:03:07.145Z,12.93
2023-02-19T01:08:10.723Z,12.92
2023-02-19T01:13:13.419Z,12.98
2023-02-19T01:18:13.338Z,12.88
2023-02-19T01:23:13.240Z,12.79
2023-02-19T01:28:16.088Z,12.53
2023-02-19T01:33:14.836Z,12.34
2023-02-19T01:38:14.675Z,12.17
2023-02-19T01:43:19.053Z,12.03
2023-02-19T01:48:40.852Z,11.95
2023-02-19T01:53:40.863Z,11.95
2023-02-19T01:58:40.409Z,11.87
2023-02-19T02:03:40.597Z,11.77
2023-02-19T02:09:05.031Z,11.58
2023-02-19T02:14:03.514Z,11.42
2023-02-19T02:19:03.718Z,11.41
2023-02-19T02:24:23.800Z,11.44
2023-02-19T02:29:47.822Z,11.47
2023-02-19T02:34:50.010Z,11.49
2023-02-19T02:39:48.512Z,11.42
2023-02-19T02:45:12.068Z,11.31
2023-02-19T02:50:20.318Z,11.23
2023-02-19T02:55:22.051Z,11.27
2023-02-19T03:00:24.678Z,11.12
2023-02-19T03:05:43.776Z,11.11
2023-02-19T03:10:43.087Z,11.07
2023-02-19T03:16:07.751Z,10.99
2023-02-19T03:21:10.656Z,11.04
2023-02-19T03:26:11.906Z,10.99
2023-02-19T03:31:22.452Z,10.85
2023-02-19T03:36:26.050Z,10.70
2023-02-19T03:41:31.756Z,10.69
2023-02-19T03:46:33.917Z,10.69
2023-02-19T03:51:35.823Z,10.65
2023-02-19T03:56:56.741Z,10.54
2023-02-19T04:02:01.698Z,10.51
2023-02-19T04:07:09.739Z,10.42
2023-02-19T04:12:13.115Z,10.35
2023-02-19T04:18:03.101Z,10.29
2023-02-19T04:23:06.942Z,10.23
2023-02-19T04:28:04.703Z,10.17
2023-02-19T04:33:07.203Z,10.12
2023-02-19T04:38:14.706Z,10.19
2023-02-19T04:43:18.828Z,10.15
2023-02-19T04:48:17.788Z,10.19
2023-02-19T04:53:18.609Z,10.14
2023-02-19T04:58:23.823Z,10.01
2023-02-19T05:03:24.236Z,9.88
2023-02-19T05:08:22.257Z,9.72
2023-02-19T05:13:25.564Z,9.57
2023-02-19T05:18:29.497Z,9.47
2023-02-19T05:23:29.163Z,9.47
2023-02-19T05:28:31.061Z,9.43
2023-02-19T05:33:32.357Z,9.53
2023-02-19T05:38:35.103Z,9.63
2023-02-19T05:43:33.969Z,9.66
2023-02-19T05:48:34.764Z,9.63
2023-02-19T05:53:35.709Z,9.60
2023-02-19T05:58:36.434Z,9.57
2023-02-19T06:03:44.438Z,9.48
2023-02-19T06:08:48.091Z,9.50
2023-02-19T06:13:49.868Z,9.59
2023-02-19T06:18:53.362Z,9.54
2023-02-19T06:23:55.493Z,9.47
2023-02-19T06:28:56.568Z,9.52
2023-02-19T06:34:07.485Z,9.61
2023-02-19T06:39:06.579Z,9.66
2023-02-19T06:44:19.792Z,9.67
2023-02-19T06:49:18.993Z,9.75
2023-02-19T06:54:20.230Z,10.00
2023-02-19T06:59:21.353Z,10.08
2023-02-19T07:04:26.200Z,10.34
2023-02-19T07:09:35.056Z,10.56
2023-02-19T07:14:39.681Z,10.76
2023-02-19T07:19:39.123Z,11.01
2023-02-19T07:24:47.879Z,11.28
2023-02-19T07:30:11.888Z,11.52
2023-02-19T07:35:13.226Z,11.71
2023-02-19T07:40:12.047Z,11.84
2023-02-19T07:45:14.074Z,11.94
2023-02-19T07:50:14.950Z,12.10
2023-02-19T07:55:16.741Z,12.24
2023-02-19T08:00:15.016Z,12.36
2023-02-19T08:05:14.247Z,12.60
2023-02-19T08:10:34.922Z,12.74
2023-02-19T08:15:35.377Z,12.90
2023-02-19T08:20:37.053Z,13.05
2023-02-19T08:25:36.015Z,13.16
2023-02-19T08:30:41.316Z,13.42
2023-02-19T08:35:44.123Z,13.70
2023-02-19T08:40:44.434Z,14.01
2023-02-19T08:45:49.621Z,14.19
2023-02-19T08:50:54.052Z,14.23
2023-02-19T08:56:17.166Z,14.37
2023-02-19T09:01:22.130Z,14.46
2023-02-19T09:06:23.950Z,14.50
2023-02-19T09:11:23.012Z,14.68
2023-02-19T09:16:25.109Z,14.53
2023-02-19T09:21:22.562Z,14.61
2023-02-19T09:26:23.723Z,14.77
2023-02-19T09:31:24.931Z,14.94
2023-02-19T09:36:24.833Z,15.07
2023-02-19T09:41:27.817Z,15.27
2023-02-19T09:46:38.964Z,15.40
2023-02-19T09:51:38.168Z,15.42
2023-02-19T09:56:41.364Z,15.48
2023-02-19T10:01:40.980Z,15.67
2023-02-19T10:06:45.998Z,15.77
2023-02-19T10:11:47.644Z,15.86
2023-02-19T10:16:55.182Z,15.98
2023-02-19T10:22:23.158Z,16.15
2023-02-19T10:27:35.400Z,16.33
2023-02-19T10:32:53.086Z,16.42
2023-02-19T10:37:59.466Z,16.53
2023-02-19T10:43:02.145Z,16.68
2023-02-19T10:48:02.835Z,16.97
2023-02-19T10:53:04.656Z,17.30
2023-02-19T10:58:25.004Z,17.36
2023-02-19T11:03:26.188Z,17.41
2023-02-19T11:08:38.611Z,17.45
2023-02-19T11:13:42.531Z,17.49
2023-02-19T11:18:43.057Z,17.51
2023-02-19T11:23:46.939Z,17.49
2023-02-19T11:28:45.821Z,17.70
2023-02-19T11:33:51.436Z,17.68
2023-02-19T11:38:48.643Z,17.53
2023-02-19T11:43:53.260Z,17.39
2023-02-19T11:49:00.549Z,17.55
2023-02-19T11:54:24.959Z,17.49
2023-02-19T11:59:38.657Z,17.47
2023-02-19T12:04:40.567Z,17.32
2023-02-19T12:10:07.560Z,17.28
2023-02-19T12:15:07.978Z,17.31
2023-02-19T12:20:27.778Z,17.44
2023-02-19T12:25:29.215Z,17.52
2023-02-19T12:30:32.060Z,17.61
2023-02-19T12:35:52.766Z,17.49
2023-02-19T12:40:50.894Z,17.45
2023-02-19T12:46:05.290Z,17.52
2023-02-19T12:51:05.768Z,17.58
2023-02-19T12:56:06.803Z,17.70
2023-02-19T13:01:05.669Z,17.69
2023-02-19T13:06:36.446Z,17.76
2023-02-19T13:11:44.905Z,17.89
2023-02-19T13:16:45.307Z,18.11
2023-02-19T13:22:05.750Z,18.10
2023-02-19T13:27:07.993Z,18.09
2023-02-19T13:32:10.317Z,18.18
2023-02-19T13:37:12.589Z,18.32
2023-02-19T13:42:12.653Z,18.55
2023-02-19T13:47:34.993Z,18.71
2023-02-19T13:52:33.853Z,18.58
2023-02-19T13:57:33.836Z,18.33
2023-02-19T14:02:34.156Z,18.32
2023-02-19T14:07:37.768Z,18.19
2023-02-19T14:12:37.101Z,18.11
2023-02-19T14:17:44.699Z,18.08
2023-02-19T14:23:02.148Z,17.95
2023-02-19T14:28:06.761Z,17.88
2023-02-19T14:33:11.088Z,17.80
2023-02-19T14:38:21.701Z,17.81
2023-02-19T14:43:23.855Z,17.74
2023-02-19T14:48:25.429Z,17.90
2023-02-19T14:53:24.456Z,17.77
2023-02-19T14:58:26.489Z,17.73
2023-02-19T15:03:36.638Z,17.80
2023-02-19T15:09:07.875Z,17.62
2023-02-19T15:14:07.344Z,17.46
2023-02-19T15:19:08.521Z,17.23
2023-02-19T15:24:09.618Z,17.11
2023-02-19T15:29:14.629Z,17.02
2023-02-19T15:34:22.537Z,16.98
2023-02-19T15:39:23.045Z,16.92
2023-02-19T15:44:22.780Z,16.88
2023-02-19T15:49:32.530Z,16.78
2023-02-19T15:54:46.921Z,16.74
2023-02-19T15:59:46.994Z,16.62
2023-02-19T16:04:48.610Z,16.60
2023-02-19T16:09:49.462Z,16.47
2023-02-19T16:14:50.640Z,16.45
2023-02-19T16:19:59.859Z,16.43
2023-02-19T16:25:01.053Z,16.31
2023-02-19T16:30:03.174Z,16.24
2023-02-19T16:35:07.387Z,16.06
2023-02-19T16:40:09.954Z,16.15
2023-02-19T16:45:08.582Z,16.09
2023-02-19T16:50:10.727Z,16.08
2023-02-19T16:55:12.434Z,16.01
2023-02-19T17:00:18.738Z,15.91
2023-02-19T17:05:19.556Z,15.81
2023-02-19T17:10:23.165Z,15.82
2023-02-19T17:15:25.363Z,15.83
2023-02-19T17:20:27.651Z,15.70
2023-02-19T17:25:29.374Z,15.68
2023-02-19T17:30:31.072Z,15.59
2023-02-19T17:35:30.283Z,15.51
2023-02-19T17:40:33.077Z,15.31
2023-02-19T17:45:31.864Z,15.34
2023-02-19T17:50:30.910Z,15.32
2023-02-19T17:55:29.354Z,15.29
2023-02-19T18:00:27.709Z,15.40
2023-02-19T18:05:28.343Z,15.35
2023-02-19T18:10:27.600Z,15.38
2023-02-19T18:15:28.045Z,15.19
2023-02-19T18:20:33.177Z,15.16
2023-02-19T18:25:35.160Z,15.06
2023-02-19T18:30:33.923Z,15.03
2023-02-19T18:35:34.785Z,15.00
2023-02-19T18:40:32.800Z,15.01
2023-02-19T18:45:37.047Z,14.88
2023-02-19T18:52:05.960Z,14.83
2023-02-19T19:02:48.695Z,14.67
2023-02-19T19:07:55.207Z,14.64
2023-02-19T19:13:21.055Z,14.66
2023-02-19T19:18:25.258Z,14.55
2023-02-19T19:23:30.513Z,14.45
2023-02-19T19:28:35.378Z,14.44
2023-02-19T19:33:55.087Z,14.56
2023-02-19T19:38:58.949Z,14.56
2023-02-19T19:43:58.196Z,14.62
2023-02-19T19:48:57.167Z,14.58
2023-02-19T19:53:55.488Z,14.53
2023-02-19T19:59:01.530Z,14.63
2023-02-19T20:03:59.807Z,14.54
2023-02-19T20:09:01.519Z,14.53
2023-02-19T20:14:03.465Z,14.39
2023-02-19T20:25:17.377Z,14.32
2023-02-19T20:30:21.739Z,14.35
2023-02-19T20:35:37.881Z,14.33
2023-02-19T20:40:39.544Z,14.19
2023-02-19T20:45:38.265Z,14.24
2023-02-19T20:50:37.235Z,14.25
2023-02-19T20:55:36.325Z,14.13
2023-02-19T21:00:35.734Z,14.13
2023-02-19T21:05:37.277Z,14.05
2023-02-19T21:10:34.898Z,14.05
2023-02-19T21:15:37.103Z,14.09
2023-02-19T21:21:35.715Z,14.05
2023-02-19T21:26:34.936Z,13.92
2023-02-19T21:31:37.894Z,13.83
2023-02-19T21:36:38.458Z,13.75
2023-02-19T21:41:37.911Z,13.73
2023-02-19T21:46:35.569Z,13.65
2023-02-19T21:51:35.702Z,13.55
2023-02-19T21:56:37.899Z,13.45
2023-02-19T22:01:42.056Z,13.35
2023-02-19T22:06:44.125Z,13.29
2023-02-19T22:11:46.495Z,13.31
2023-02-19T22:16:49.365Z,13.25
2023-02-19T22:21:49.847Z,13.20
2023-02-19T22:26:52.980Z,13.15
2023-02-19T22:31:55.067Z,13.19
2023-02-19T22:37:01.620Z,13.15
2023-02-19T22:42:02.668Z,12.95
2023-02-19T22:47:01.400Z,12.88
2023-02-19T22:52:09.532Z,12.64
2023-02-19T22:57:07.859Z,12.62
2023-02-19T23:02:06.494Z,12.48
2023-02-19T23:07:09.459Z,12.44
2023-02-19T23:12:10.596Z,12.38
2023-02-19T23:17:10.091Z,12.38
2023-02-19T23:22:11.431Z,12.30
2023-02-19T23:27:11.893Z,12.30
2023-02-19T23:32:13.296Z,12.27
2023-02-19T23:37:12.648Z,12.19
2023-02-19T23:42:13.529Z,12.00
2023-02-19T23:47:15.699Z,11.83
2023-02-19T23:52:14.480Z,11.44
2023-02-19T23:57:14.206Z,11.51
